Maitland, Florida
Current Conditions -  °F | °C
As of 10:53 AM on Friday 24 Oct 2014 (Local Time) from KORL Reporting Station
Few Clouds Few Clouds  
Wind Chill: 75°   Ceiling: Unl
Heat Index: 75°   Visibility: 10mi
Dew Point: 60°   Wind: 10mph
Humidity: 60%   Direction: 30°NNE
Pressure: 30"   Gusts: NA
Location:  28.63°N, 81.36°W
Report Text: KORL 241453Z 03009KT 10SM FEW040 24/16 A3000 RMK AO2 SLP163 T02390156 50009
Loading
Personal Weather Stations






























Interactive Weather Map
Tropical Storm Tracking
New forecast layout! Learn more

10-Day Weather Forecast

Advertisements
Track Severe Weather on mobile